createdAt,value
2022-10-01T08:09:28.477Z,11.23
2022-10-01T08:11:54.949Z,11.29
2022-10-01T08:14:21.617Z,11.49
2022-10-01T08:16:48.160Z,11.25
2022-10-01T08:19:15.559Z,11.51
2022-10-01T08:21:42.658Z,11.52
2022-10-01T08:24:09.399Z,11.23
2022-10-01T08:26:35.920Z,10.82
2022-10-01T08:29:02.400Z,11.90
2022-10-01T08:31:28.852Z,11.98
2022-10-01T08:33:56.002Z,12.08
2022-10-01T08:36:22.654Z,11.76
2022-10-01T08:38:49.264Z,11.74
2022-10-01T08:41:30.103Z,12.22
2022-10-01T08:43:58.760Z,12.09
2022-10-01T08:46:30.004Z,12.45
2022-10-01T08:49:20.673Z,11.98
2022-10-01T08:51:54.386Z,12.94
2022-10-01T08:54:37.348Z,13.45
2022-10-01T08:57:09.557Z,13.48
2022-10-01T08:59:52.324Z,13.43
2022-10-01T09:02:20.472Z,13.59
2022-10-01T09:04:50.229Z,13.09
2022-10-01T09:07:52.277Z,12.82
2022-10-01T09:10:42.816Z,13.28
2022-10-01T09:13:32.804Z,13.29
2022-10-01T09:16:33.317Z,13.42
2022-10-01T09:19:11.339Z,13.00
2022-10-01T09:22:02.097Z,13.71
2022-10-01T09:24:44.877Z,13.67
2022-10-01T09:27:15.899Z,13.66
2022-10-01T09:29:49.266Z,13.57
2022-10-01T09:32:22.428Z,14.14
2022-10-01T09:34:49.291Z,14.16
2022-10-01T09:37:43.305Z,14.21
2022-10-01T09:40:29.276Z,14.39
2022-10-01T09:42:56.225Z,14.13
2022-10-01T09:45:24.233Z,14.44
2022-10-01T09:47:55.115Z,13.63
2022-10-01T09:50:34.168Z,14.51
2022-10-01T09:53:01.292Z,14.55
2022-10-01T09:55:37.719Z,14.61
2022-10-01T09:58:16.436Z,13.90
2022-10-01T10:00:43.772Z,13.66
2022-10-01T10:03:10.603Z,14.88
2022-10-01T10:05:48.160Z,15.05
2022-10-01T10:08:39.445Z,16.19
2022-10-01T10:11:09.641Z,16.63
2022-10-01T10:13:41.890Z,17.48
2022-10-01T10:16:14.583Z,17.55
2022-10-01T10:18:41.471Z,17.33
2022-10-01T10:21:16.500Z,17.63
2022-10-01T10:23:51.702Z,17.62
2022-10-01T10:26:39.643Z,17.81
2022-10-01T10:29:24.678Z,17.91
2022-10-01T10:31:51.587Z,17.89
2022-10-01T10:34:28.203Z,17.85
2022-10-01T10:37:05.176Z,17.64
2022-10-01T10:39:36.629Z,17.34
2022-10-01T10:42:05.665Z,17.51
2022-10-01T10:44:38.998Z,17.93
2022-10-01T10:47:11.102Z,17.11
2022-10-01T10:49:54.497Z,17.61
2022-10-01T10:52:24.389Z,17.40
2022-10-01T10:54:53.568Z,17.80
2022-10-01T10:57:23.636Z,17.54
2022-10-01T11:00:20.281Z,17.38
2022-10-01T11:03:01.538Z,17.09
2022-10-01T11:05:32.014Z,16.86
2022-10-01T11:08:02.666Z,16.98
2022-10-01T11:10:47.353Z,16.92
2022-10-01T11:13:34.150Z,17.41
2022-10-01T11:16:06.840Z,17.65
2022-10-01T11:18:55.904Z,18.20
2022-10-01T11:21:34.544Z,18.32
2022-10-01T11:24:16.220Z,18.16
2022-10-01T11:27:01.436Z,17.62
2022-10-01T11:29:35.548Z,17.91
2022-10-01T11:32:11.093Z,17.80
2022-10-01T11:35:13.309Z,18.17
2022-10-01T11:37:52.092Z,18.03
2022-10-01T11:40:27.093Z,17.65
2022-10-01T11:43:02.884Z,17.83
2022-10-01T11:45:35.090Z,17.77
2022-10-01T11:48:07.500Z,17.68
2022-10-01T11:50:40.699Z,17.76
2022-10-01T11:53:33.623Z,17.87
2022-10-01T11:56:29.757Z,18.17
2022-10-01T11:59:06.346Z,18.17
2022-10-01T12:01:39.978Z,18.87
2022-10-01T12:04:17.320Z,19.18
2022-10-01T12:06:59.184Z,19.39
2022-10-01T12:09:49.059Z,18.84
2022-10-01T12:12:20.129Z,18.68
2022-10-01T12:14:52.525Z,18.73
2022-10-01T12:17:22.380Z,19.09
2022-10-01T12:19:53.590Z,18.91
2022-10-01T12:22:31.302Z,17.89
2022-10-01T12:24:57.855Z,18.42
2022-10-01T12:27:39.834Z,19.04
2022-10-01T12:30:22.815Z,19.34
2022-10-01T12:33:12.554Z,19.55
2022-10-01T12:35:52.447Z,18.94
2022-10-01T12:38:28.019Z,19.90
2022-10-01T12:41:16.393Z,19.63
2022-10-01T12:43:53.689Z,19.13
2022-10-01T12:46:29.497Z,19.16
2022-10-01T12:49:25.859Z,18.48
2022-10-01T12:52:19.771Z,18.66
2022-10-01T12:54:58.379Z,18.89
2022-10-01T12:57:28.974Z,19.01
2022-10-01T13:00:18.036Z,18.82
2022-10-01T13:02:55.072Z,19.15
2022-10-01T13:05:51.533Z,18.71
2022-10-01T13:08:17.963Z,19.14
2022-10-01T13:11:29.072Z,19.26
2022-10-01T13:13:57.325Z,19.37
2022-10-01T13:16:56.351Z,18.98
2022-10-01T13:19:44.979Z,18.47
2022-10-01T13:22:45.147Z,18.10
2022-10-01T13:25:32.010Z,18.02
2022-10-01T13:27:59.017Z,18.22
2022-10-01T13:30:27.964Z,18.12
2022-10-01T13:32:58.433Z,18.41
2022-10-01T13:35:36.718Z,17.84
2022-10-01T13:38:30.293Z,18.04
2022-10-01T13:40:59.685Z,17.34
2022-10-01T13:43:26.222Z,17.09
2022-10-01T13:45:55.094Z,17.22
2022-10-01T13:48:24.915Z,17.32
2022-10-01T13:51:09.201Z,17.26
2022-10-01T13:53:43.231Z,17.30
2022-10-01T13:56:14.358Z,17.65
2022-10-01T13:58:45.528Z,17.68
2022-10-01T14:01:24.112Z,18.36
2022-10-01T14:03:50.920Z,18.47
2022-10-01T14:06:26.707Z,18.07
2022-10-01T14:09:00.429Z,18.07
2022-10-01T14:12:10.685Z,18.23
2022-10-01T14:14:57.183Z,18.42
2022-10-01T14:17:29.350Z,18.05
2022-10-01T14:19:57.237Z,17.98
2022-10-01T14:22:31.748Z,17.60
2022-10-01T14:25:10.201Z,17.44
2022-10-01T14:27:45.567Z,18.20
2022-10-01T14:30:15.422Z,18.26
2022-10-01T14:32:57.422Z,18.41
2022-10-01T14:35:52.740Z,18.17
2022-10-01T14:38:21.299Z,17.45
2022-10-01T14:40:49.744Z,15.73
2022-10-01T14:43:18.986Z,17.26
2022-10-01T14:45:56.051Z,17.36
2022-10-01T14:48:23.305Z,17.32
2022-10-01T14:50:53.165Z,16.23
2022-10-01T14:53:23.063Z,17.00
2022-10-01T14:55:53.569Z,17.09
2022-10-01T14:58:41.533Z,17.22
2022-10-01T15:01:08.137Z,16.38
2022-10-01T15:03:43.561Z,17.34
2022-10-01T15:06:15.599Z,16.49
2022-10-01T15:08:47.871Z,17.29
2022-10-01T15:11:17.418Z,17.28
2022-10-01T15:13:46.373Z,17.20
2022-10-01T15:16:16.510Z,16.82
2022-10-01T15:18:47.854Z,16.91
2022-10-01T15:21:19.401Z,16.93
2022-10-01T15:23:47.789Z,16.23
2022-10-01T15:26:20.117Z,16.78
2022-10-01T15:28:46.688Z,17.11
2022-10-01T15:31:13.501Z,16.80
2022-10-01T15:33:41.365Z,16.57
2022-10-01T15:36:15.247Z,17.03
2022-10-01T15:38:44.345Z,16.96
2022-10-01T15:41:31.606Z,16.58
2022-10-01T15:44:02.931Z,15.95
2022-10-01T15:46:33.199Z,16.66
2022-10-01T15:49:20.345Z,16.45
2022-10-01T15:52:19.962Z,15.55
2022-10-01T15:54:47.332Z,15.72
2022-10-01T15:57:23.236Z,15.53
2022-10-01T15:59:55.833Z,15.88
2022-10-01T16:02:30.240Z,15.93
2022-10-01T16:05:07.125Z,15.41
2022-10-01T16:07:34.836Z,15.92
2022-10-01T16:10:27.939Z,15.76
2022-10-01T16:12:54.353Z,15.54
2022-10-01T16:15:25.715Z,15.72
2022-10-01T16:18:02.302Z,15.63
2022-10-01T16:20:31.763Z,15.54
2022-10-01T16:23:32.142Z,15.51
2022-10-01T16:25:58.661Z,15.31
2022-10-01T16:28:31.344Z,15.46
2022-10-01T16:30:57.849Z,14.82
2022-10-01T16:33:26.567Z,15.00
2022-10-01T16:35:55.798Z,15.28
2022-10-01T16:38:22.264Z,15.27
2022-10-01T16:40:48.854Z,14.94
2022-10-01T16:43:19.907Z,15.16
2022-10-01T16:45:46.469Z,15.19
2022-10-01T16:48:14.476Z,15.12
2022-10-01T16:50:41.949Z,15.11
2022-10-01T16:53:12.242Z,14.85
2022-10-01T16:55:38.722Z,14.53
2022-10-01T16:58:06.829Z,14.97
2022-10-01T17:00:33.794Z,13.65
2022-10-01T17:03:00.462Z,14.87
2022-10-01T17:05:30.216Z,14.69
2022-10-01T17:08:05.029Z,14.91
2022-10-01T17:10:36.601Z,14.81
2022-10-01T17:13:03.745Z,14.72
2022-10-01T17:15:30.994Z,14.73
2022-10-01T17:17:58.755Z,14.65
2022-10-01T17:20:28.385Z,14.19
2022-10-01T17:22:56.404Z,14.62
2022-10-01T17:25:32.362Z,14.58
2022-10-01T17:27:59.822Z,14.37
2022-10-01T17:30:29.098Z,14.42
2022-10-01T17:32:56.974Z,14.53
2022-10-01T17:35:23.815Z,14.55
2022-10-01T17:37:50.308Z,14.15
2022-10-01T17:40:16.946Z,12.76
2022-10-01T17:42:43.449Z,14.26
2022-10-01T17:45:12.702Z,14.30
2022-10-01T17:47:44.507Z,13.57
2022-10-01T17:50:11.168Z,13.83
2022-10-01T17:52:37.868Z,12.84
2022-10-01T17:55:05.187Z,14.13
2022-10-01T17:57:32.104Z,13.79
2022-10-01T17:59:58.563Z,13.68
2022-10-01T18:02:42.959Z,13.98
2022-10-01T18:05:12.511Z,14.08
2022-10-01T18:07:39.388Z,13.91
2022-10-01T18:10:08.061Z,13.94
2022-10-01T18:12:34.914Z,13.88
2022-10-01T18:15:01.741Z,13.45
2022-10-01T18:17:28.268Z,12.14
2022-10-01T18:19:54.794Z,13.06
2022-10-01T18:22:21.942Z,13.63
2022-10-01T18:24:49.451Z,13.53
2022-10-01T18:27:16.229Z,13.38
2022-10-01T18:29:42.778Z,13.42
2022-10-01T18:32:09.167Z,13.40
2022-10-01T18:34:35.588Z,13.31
2022-10-01T18:37:07.219Z,12.84
2022-10-01T18:39:47.336Z,13.08
2022-10-01T18:42:21.150Z,12.71
2022-10-01T18:44:52.840Z,11.41
2022-10-01T18:47:37.638Z,11.52
2022-10-01T18:50:24.321Z,12.94
2022-10-01T18:52:59.577Z,12.86
2022-10-01T18:55:55.157Z,12.73
2022-10-01T18:58:59.181Z,12.66
2022-10-01T19:01:48.888Z,12.55
2022-10-01T19:04:27.609Z,12.61
2022-10-01T19:06:54.041Z,12.62
2022-10-01T19:09:23.515Z,12.53
2022-10-01T19:12:15.011Z,12.50
2022-10-01T19:14:41.545Z,12.49
2022-10-01T19:17:07.961Z,12.53
2022-10-01T19:19:53.145Z,12.45
2022-10-01T19:22:35.065Z,12.11
2022-10-01T19:25:22.138Z,12.36
2022-10-01T19:28:15.961Z,12.31
2022-10-01T19:31:03.599Z,12.29
2022-10-01T19:33:35.188Z,12.07
2022-10-01T19:36:03.804Z,12.13
2022-10-01T19:38:42.282Z,12.32
2022-10-01T19:41:20.479Z,11.46
2022-10-01T19:44:03.059Z,12.21
2022-10-01T19:46:36.141Z,12.12
2022-10-01T19:49:08.895Z,12.30
2022-10-01T19:52:02.573Z,12.26
2022-10-01T19:54:42.833Z,12.21
2022-10-01T19:57:13.281Z,12.18
2022-10-01T19:59:40.656Z,11.84
2022-10-01T20:02:32.087Z,12.13
2022-10-01T20:05:12.571Z,12.11
2022-10-01T20:07:57.749Z,12.13
2022-10-01T20:10:38.383Z,12.22
2022-10-01T20:13:14.202Z,12.08
2022-10-01T20:16:03.830Z,12.31
2022-10-01T20:18:57.058Z,12.39
2022-10-01T20:22:01.964Z,11.86
2022-10-01T20:24:36.426Z,12.61
2022-10-01T20:27:34.051Z,12.57
2022-10-01T20:30:17.755Z,12.64
2022-10-01T20:32:53.020Z,12.48
2022-10-01T20:35:26.281Z,12.54
2022-10-01T20:38:06.781Z,12.26
2022-10-01T20:40:50.764Z,12.08
2022-10-01T20:43:22.128Z,12.35
2022-10-01T20:45:51.697Z,12.31
2022-10-01T20:48:22.653Z,11.63
2022-10-01T20:50:53.819Z,12.03
2022-10-01T20:53:46.335Z,12.24
2022-10-01T20:56:26.097Z,11.92
2022-10-01T20:58:58.683Z,12.14
2022-10-01T21:01:27.391Z,12.25
2022-10-01T21:04:04.946Z,12.12
2022-10-01T21:06:41.471Z,12.31
2022-10-01T21:09:31.057Z,12.13
2022-10-01T21:12:07.012Z,12.35
2022-10-01T21:14:42.164Z,12.24
2022-10-01T21:17:32.976Z,11.86
2022-10-01T21:20:13.589Z,12.23
2022-10-01T21:23:07.587Z,12.30
2022-10-01T21:25:49.717Z,12.25
2022-10-01T21:28:35.111Z,12.46
2022-10-01T21:31:26.657Z,12.52
2022-10-01T21:34:28.182Z,12.48
2022-10-01T21:37:22.347Z,12.69
2022-10-01T21:40:03.855Z,12.15
2022-10-01T21:43:11.845Z,12.15
2022-10-01T21:46:06.157Z,12.70
2022-10-01T21:49:08.669Z,12.70
2022-10-01T21:51:51.157Z,12.69
2022-10-01T21:54:55.091Z,12.74
2022-10-01T21:57:31.343Z,12.55
2022-10-01T22:00:22.677Z,12.69
2022-10-01T22:03:10.857Z,12.78
2022-10-01T22:06:01.723Z,12.83
2022-10-01T22:08:56.497Z,12.77
2022-10-01T22:11:27.671Z,12.85
2022-10-01T22:14:12.818Z,12.65
2022-10-01T22:16:55.154Z,12.73
2022-10-01T22:19:28.075Z,12.91
2022-10-01T22:22:02.827Z,11.22
2022-10-01T22:24:36.383Z,12.97
2022-10-01T22:27:15.359Z,12.97
2022-10-01T22:29:48.759Z,12.83
2022-10-01T22:32:19.396Z,12.60
2022-10-01T22:34:55.000Z,13.00
2022-10-01T22:37:56.788Z,12.97
2022-10-01T22:40:34.392Z,12.84
2022-10-01T22:43:09.241Z,13.03
2022-10-01T22:45:57.760Z,13.02
2022-10-01T22:48:40.767Z,12.99
2022-10-01T22:51:44.147Z,13.13
2022-10-01T22:54:21.533Z,13.22
2022-10-01T22:57:36.296Z,12.97
